createdAt,value
2023-02-02T00:02:01.814Z,8.30
2023-02-02T00:04:34.458Z,8.30
2023-02-02T00:07:02.742Z,8.30
2023-02-02T00:09:31.789Z,8.20
2023-02-02T00:12:00.120Z,8.20
2023-02-02T00:14:26.871Z,8.20
2023-02-02T00:16:54.773Z,8.20
2023-02-02T00:19:27.615Z,8.30
2023-02-02T00:21:55.148Z,8.20
2023-02-02T00:24:22.587Z,8.20
2023-02-02T00:26:54.798Z,8.20
2023-02-02T00:29:27.398Z,8.30
2023-02-02T00:31:54.307Z,8.20
2023-02-02T00:34:22.202Z,8.20
2023-02-02T00:36:49.750Z,8.20
2023-02-02T00:39:18.809Z,8.20
2023-02-02T00:41:45.901Z,8.20
2023-02-02T00:44:31.650Z,8.20
2023-02-02T00:46:58.248Z,8.20
2023-02-02T00:49:25.105Z,8.20
2023-02-02T00:51:51.678Z,8.20
2023-02-02T00:54:18.327Z,8.20
2023-02-02T00:56:44.911Z,8.10
2023-02-02T00:59:11.552Z,8.20
2023-02-02T01:01:38.344Z,8.20
2023-02-02T01:04:05.079Z,8.10
2023-02-02T01:06:31.688Z,8.20
2023-02-02T01:08:58.431Z,8.10
2023-02-02T01:11:25.677Z,8.10
2023-02-02T01:13:52.264Z,8.10
2023-02-02T01:16:19.011Z,8.10
2023-02-02T01:18:45.656Z,8.10
2023-02-02T01:21:12.775Z,8.00
2023-02-02T01:23:39.951Z,8.00
2023-02-02T01:26:09.294Z,8.00
2023-02-02T01:28:36.581Z,7.90
2023-02-02T01:31:08.851Z,7.90
2023-02-02T01:33:35.579Z,7.90
2023-02-02T01:36:05.999Z,7.90
2023-02-02T01:38:33.049Z,7.90
2023-02-02T01:40:59.986Z,7.90
2023-02-02T01:43:49.277Z,7.90
2023-02-02T01:46:18.997Z,7.90
2023-02-02T01:49:16.296Z,7.90
2023-02-02T01:51:57.973Z,7.80
2023-02-02T01:54:33.387Z,7.80
2023-02-02T01:57:31.005Z,7.90
2023-02-02T02:00:00.545Z,7.80
2023-02-02T02:02:29.471Z,7.80
2023-02-02T02:04:56.757Z,7.80
2023-02-02T02:07:23.901Z,7.80
2023-02-02T02:09:50.541Z,7.80
2023-02-02T02:12:17.287Z,7.80
2023-02-02T02:15:09.213Z,7.80
2023-02-02T02:18:03.463Z,7.80
2023-02-02T02:21:18.538Z,7.80
2023-02-02T02:24:31.507Z,7.70
2023-02-02T02:26:58.102Z,7.70
2023-02-02T02:29:32.499Z,7.80
2023-02-02T02:32:11.357Z,7.70
2023-02-02T02:34:45.803Z,7.70
2023-02-02T02:37:22.849Z,7.70
2023-02-02T02:39:57.860Z,7.70
2023-02-02T02:42:28.795Z,7.70
2023-02-02T02:44:57.469Z,7.70
2023-02-02T02:47:24.992Z,7.70
2023-02-02T02:49:51.613Z,7.70
2023-02-02T02:52:18.187Z,7.70
2023-02-02T02:54:49.854Z,7.70
2023-02-02T02:57:34.695Z,7.70
2023-02-02T03:00:07.078Z,7.70
2023-02-02T03:02:52.604Z,7.70
2023-02-02T03:06:04.747Z,7.70
2023-02-02T03:08:39.907Z,7.70
2023-02-02T03:11:10.320Z,7.70
2023-02-02T03:13:37.543Z,7.80
2023-02-02T03:16:04.517Z,7.70
2023-02-02T03:18:32.471Z,7.80
2023-02-02T03:20:59.447Z,7.80
2023-02-02T03:23:26.882Z,7.80
2023-02-02T03:25:54.414Z,7.80
2023-02-02T03:28:22.983Z,7.80
2023-02-02T03:30:50.610Z,7.80
2023-02-02T03:33:18.546Z,7.80
2023-02-02T03:35:45.826Z,7.80
2023-02-02T03:38:12.713Z,7.80
2023-02-02T03:40:40.302Z,7.90
2023-02-02T03:43:07.030Z,7.90
2023-02-02T03:45:35.452Z,7.90
2023-02-02T03:48:05.703Z,7.90
2023-02-02T03:50:42.637Z,7.90
2023-02-02T03:53:09.280Z,7.90
2023-02-02T03:55:35.847Z,7.90
2023-02-02T03:58:02.443Z,7.90
2023-02-02T04:00:29.086Z,8.00
2023-02-02T04:02:55.665Z,8.00
2023-02-02T04:05:22.541Z,8.00
2023-02-02T04:07:49.363Z,8.00
2023-02-02T04:10:16.850Z,8.00
2023-02-02T04:12:43.479Z,8.00
2023-02-02T04:15:10.419Z,8.00
2023-02-02T04:17:37.222Z,8.00
2023-02-02T04:20:05.481Z,8.10
2023-02-02T04:22:32.594Z,8.00
2023-02-02T04:24:59.203Z,8.00
2023-02-02T04:27:25.822Z,8.10
2023-02-02T04:29:52.439Z,8.10
2023-02-02T04:32:19.207Z,8.10
2023-02-02T04:34:45.808Z,8.10
2023-02-02T04:37:12.514Z,8.10
2023-02-02T04:39:39.129Z,8.10
2023-02-02T04:42:05.817Z,8.10
2023-02-02T04:44:32.423Z,8.20
2023-02-02T04:46:59.011Z,8.20
2023-02-02T04:49:25.636Z,8.20
2023-02-02T04:51:52.279Z,8.20
2023-02-02T04:54:18.964Z,8.20
2023-02-02T04:56:45.601Z,8.20
2023-02-02T04:59:12.235Z,8.20
2023-02-02T05:01:38.884Z,8.20
2023-02-02T05:04:05.552Z,8.30
2023-02-02T05:06:32.214Z,8.30
2023-02-02T05:08:58.843Z,8.30
2023-02-02T05:11:25.515Z,8.30
2023-02-02T05:13:54.261Z,8.30
2023-02-02T05:16:22.354Z,8.30
2023-02-02T05:18:54.585Z,8.30
2023-02-02T05:21:21.444Z,8.30
2023-02-02T05:23:48.131Z,8.40
2023-02-02T05:26:18.492Z,8.30
2023-02-02T05:28:45.360Z,8.30
2023-02-02T05:31:12.408Z,8.40
2023-02-02T05:33:39.052Z,8.30
2023-02-02T05:36:06.346Z,8.40
2023-02-02T05:38:33.508Z,8.40
2023-02-02T05:41:00.812Z,8.40
2023-02-02T05:43:29.124Z,8.40
2023-02-02T05:45:56.042Z,8.30
2023-02-02T05:48:22.749Z,8.40
2023-02-02T05:51:04.635Z,8.40
2023-02-02T05:53:32.039Z,8.40
2023-02-02T05:55:59.180Z,8.40
2023-02-02T05:58:25.953Z,8.40
2023-02-02T06:00:54.410Z,8.40
2023-02-02T06:03:22.289Z,8.40
2023-02-02T06:05:49.033Z,8.40
2023-02-02T06:08:15.731Z,8.40
2023-02-02T06:10:42.360Z,8.40
2023-02-02T06:13:09.230Z,8.30
2023-02-02T06:15:36.461Z,8.40
2023-02-02T06:18:03.260Z,8.30
2023-02-02T06:20:29.876Z,8.30
2023-02-02T06:22:56.523Z,8.30
2023-02-02T06:25:23.611Z,8.30
2023-02-02T06:27:50.475Z,8.30
2023-02-02T06:30:17.269Z,8.30
2023-02-02T06:32:43.899Z,8.30
2023-02-02T06:35:10.584Z,8.30
2023-02-02T06:37:39.024Z,8.30
2023-02-02T06:40:08.644Z,8.30
2023-02-02T06:42:36.076Z,8.30
2023-02-02T06:45:04.315Z,8.20
2023-02-02T06:47:32.936Z,8.30
2023-02-02T06:49:59.496Z,8.30
2023-02-02T06:52:26.632Z,8.30
2023-02-02T06:54:53.284Z,8.30
2023-02-02T06:57:20.062Z,8.30
2023-02-02T06:59:47.157Z,8.30
2023-02-02T07:02:14.194Z,8.20
2023-02-02T07:04:40.809Z,8.20
2023-02-02T07:07:07.382Z,8.20
2023-02-02T07:09:35.076Z,8.20
2023-02-02T07:12:01.973Z,8.20
2023-02-02T07:14:28.564Z,8.20
2023-02-02T07:16:55.169Z,8.20
2023-02-02T07:19:21.842Z,8.20
2023-02-02T07:21:48.496Z,8.20
2023-02-02T07:24:15.176Z,8.20
2023-02-02T07:26:41.839Z,8.20
2023-02-02T07:29:12.348Z,8.20
2023-02-02T07:31:44.555Z,8.20
2023-02-02T07:34:11.228Z,8.20
2023-02-02T07:36:38.493Z,8.20
2023-02-02T07:39:07.708Z,8.20
2023-02-02T07:41:37.362Z,8.20
2023-02-02T07:44:05.418Z,8.20
2023-02-02T07:46:32.229Z,8.20
2023-02-02T07:48:58.887Z,8.20
2023-02-02T07:51:25.875Z,8.20
2023-02-02T07:53:55.057Z,8.20
2023-02-02T07:56:24.616Z,8.20
2023-02-02T07:58:53.269Z,8.20
2023-02-02T08:01:22.658Z,8.20
2023-02-02T08:03:50.528Z,8.20
2023-02-02T08:06:28.864Z,8.20
2023-02-02T08:08:55.879Z,8.20
2023-02-02T08:11:23.663Z,8.20
2023-02-02T08:13:54.832Z,8.20
2023-02-02T08:16:23.124Z,8.30
2023-02-02T08:18:50.508Z,8.30
2023-02-02T08:21:21.940Z,8.30
2023-02-02T08:23:49.049Z,8.30
2023-02-02T08:26:20.480Z,8.30
2023-02-02T08:28:49.320Z,8.30
2023-02-02T08:31:20.655Z,8.30
2023-02-02T08:33:47.342Z,8.30
2023-02-02T08:36:16.411Z,8.30
2023-02-02T08:38:43.138Z,8.30
2023-02-02T08:41:14.463Z,8.30
2023-02-02T08:43:42.011Z,8.40
2023-02-02T08:46:10.875Z,8.30
2023-02-02T08:48:38.349Z,8.40
2023-02-02T08:51:06.230Z,8.40
2023-02-02T08:53:33.538Z,8.40
2023-02-02T08:56:06.514Z,8.40
2023-02-02T08:58:34.315Z,8.50
2023-02-02T09:01:14.338Z,8.50
2023-02-02T09:03:41.893Z,8.50
2023-02-02T09:06:11.499Z,8.60
2023-02-02T09:08:38.937Z,8.60
2023-02-02T09:11:13.948Z,8.70
2023-02-02T09:13:41.739Z,8.80
2023-02-02T09:16:10.652Z,8.80
2023-02-02T09:18:37.589Z,8.90
2023-02-02T09:21:06.891Z,8.90
2023-02-02T09:23:35.725Z,9.00
2023-02-02T09:26:23.072Z,9.00
2023-02-02T09:28:54.876Z,9.10
2023-02-02T09:31:21.926Z,9.20
2023-02-02T09:33:48.829Z,9.10
2023-02-02T09:36:17.921Z,9.20
2023-02-02T09:38:45.000Z,9.20
2023-02-02T09:41:35.892Z,9.20
2023-02-02T09:44:23.810Z,9.20
2023-02-02T09:47:01.284Z,9.20
2023-02-02T09:49:46.219Z,9.20
2023-02-02T09:52:26.412Z,9.20
2023-02-02T09:54:59.536Z,9.20
2023-02-02T09:57:31.506Z,9.20
2023-02-02T09:59:58.269Z,9.10
2023-02-02T10:02:39.168Z,9.10
2023-02-02T10:05:16.963Z,9.10
2023-02-02T10:07:46.376Z,9.10
2023-02-02T10:10:34.554Z,9.10
2023-02-02T10:13:20.476Z,9.10
2023-02-02T10:16:07.387Z,9.10
2023-02-02T10:18:57.537Z,9.10
2023-02-02T10:21:31.883Z,9.10
2023-02-02T10:24:00.658Z,9.10
2023-02-02T10:26:39.067Z,9.10
2023-02-02T10:29:12.261Z,9.10
2023-02-02T10:31:44.166Z,9.20
2023-02-02T10:34:38.268Z,9.20
2023-02-02T10:37:20.241Z,9.20
2023-02-02T10:40:02.493Z,9.20
2023-02-02T10:43:12.307Z,9.20
2023-02-02T10:45:41.775Z,9.20
2023-02-02T10:48:16.441Z,9.20
2023-02-02T10:50:49.362Z,9.20
2023-02-02T10:53:16.762Z,9.30
2023-02-02T10:55:53.227Z,9.30
2023-02-02T10:58:49.702Z,9.30
2023-02-02T11:01:18.140Z,9.30
2023-02-02T11:03:45.206Z,9.20
2023-02-02T11:06:31.576Z,9.20
2023-02-02T11:09:03.839Z,9.30
2023-02-02T11:11:39.680Z,9.20
2023-02-02T11:14:09.604Z,9.30
2023-02-02T11:16:44.282Z,9.30
2023-02-02T11:19:16.958Z,9.30
2023-02-02T11:21:56.627Z,9.30
2023-02-02T11:24:36.436Z,9.40
2023-02-02T11:27:07.935Z,9.40
2023-02-02T11:29:40.619Z,9.40
2023-02-02T11:32:37.820Z,9.40
2023-02-02T11:35:04.494Z,9.50
2023-02-02T11:37:32.584Z,9.50
2023-02-02T11:40:22.591Z,9.50
2023-02-02T11:42:50.167Z,9.50
2023-02-02T11:45:20.421Z,9.40
2023-02-02T11:47:47.224Z,9.50
2023-02-02T11:50:27.440Z,9.50
2023-02-02T11:52:55.041Z,9.40
2023-02-02T11:55:27.748Z,9.50
2023-02-02T11:58:18.550Z,9.50
2023-02-02T12:00:50.580Z,9.50
2023-02-02T12:03:35.561Z,9.50
2023-02-02T12:06:18.593Z,9.50
2023-02-02T12:08:45.955Z,9.50
2023-02-02T12:11:34.219Z,9.50
2023-02-02T12:14:25.006Z,9.40
2023-02-02T12:17:02.846Z,9.50
2023-02-02T12:19:29.428Z,9.40
2023-02-02T12:22:17.368Z,9.40
2023-02-02T12:24:58.576Z,9.40
2023-02-02T12:28:00.031Z,9.40
2023-02-02T12:30:30.505Z,9.40
2023-02-02T12:33:12.215Z,9.40
2023-02-02T12:35:48.012Z,9.40
2023-02-02T12:38:35.848Z,9.40
2023-02-02T12:41:35.188Z,9.40
2023-02-02T12:44:26.555Z,9.30
2023-02-02T12:47:21.033Z,9.30
2023-02-02T12:50:01.665Z,9.30
2023-02-02T12:52:53.520Z,9.30
2023-02-02T12:55:34.796Z,9.30
2023-02-02T12:58:12.458Z,9.30
2023-02-02T13:00:57.856Z,9.30
2023-02-02T13:03:33.543Z,9.30
2023-02-02T13:06:09.556Z,9.30
2023-02-02T13:08:51.842Z,9.30
2023-02-02T13:11:31.683Z,9.20
2023-02-02T13:14:25.479Z,9.20
2023-02-02T13:16:56.047Z,9.20
2023-02-02T13:19:51.140Z,9.20
2023-02-02T13:22:25.004Z,9.20
2023-02-02T13:24:55.948Z,9.20
2023-02-02T13:27:25.159Z,9.20
2023-02-02T13:30:25.960Z,9.20
2023-02-02T13:32:54.804Z,9.20
2023-02-02T13:35:46.449Z,9.20
2023-02-02T13:38:26.147Z,9.10
2023-02-02T13:40:58.938Z,9.10
2023-02-02T13:43:40.089Z,9.10
2023-02-02T13:46:19.570Z,9.10
2023-02-02T13:49:06.628Z,9.10
2023-02-02T13:52:03.490Z,9.10
2023-02-02T13:54:44.774Z,9.00
2023-02-02T13:57:21.010Z,9.10
2023-02-02T14:00:12.038Z,9.10
2023-02-02T14:02:43.994Z,9.10
2023-02-02T14:05:29.537Z,9.10
2023-02-02T14:08:04.311Z,9.10
2023-02-02T14:10:43.293Z,9.10
2023-02-02T14:13:36.959Z,9.10
2023-02-02T14:16:06.387Z,9.20
2023-02-02T14:18:54.469Z,9.10
2023-02-02T14:21:47.614Z,9.20
2023-02-02T14:24:26.317Z,9.20
2023-02-02T14:26:55.447Z,9.20
2023-02-02T14:29:29.492Z,9.20
2023-02-02T14:31:58.768Z,9.20
2023-02-02T14:34:39.584Z,9.10
2023-02-02T14:37:12.155Z,9.20
2023-02-02T14:40:08.716Z,9.10
2023-02-02T14:43:27.079Z,9.10
2023-02-02T14:46:12.577Z,9.10
2023-02-02T14:48:53.101Z,9.10
2023-02-02T14:51:27.980Z,9.10
2023-02-02T14:54:01.002Z,9.00
2023-02-02T14:56:50.647Z,9.00
2023-02-02T14:59:22.110Z,9.00
2023-02-02T15:01:59.400Z,9.00
2023-02-02T15:04:27.737Z,9.00
2023-02-02T15:06:55.550Z,9.00
2023-02-02T15:09:29.196Z,9.00
2023-02-02T15:12:00.848Z,8.90
2023-02-02T15:14:51.561Z,8.90
2023-02-02T15:17:41.378Z,8.90
2023-02-02T15:20:13.670Z,8.90
2023-02-02T15:22:50.707Z,8.90
2023-02-02T15:25:47.072Z,8.90
2023-02-02T15:28:38.895Z,8.90
2023-02-02T15:31:11.720Z,8.90
2023-02-02T15:33:43.785Z,8.90
2023-02-02T15:36:20.431Z,8.90
2023-02-02T15:38:50.497Z,8.90
2023-02-02T15:41:23.604Z,8.90
2023-02-02T15:43:51.434Z,8.90
2023-02-02T15:46:29.303Z,8.90
2023-02-02T15:49:32.756Z,8.90
2023-02-02T15:52:03.684Z,8.90
2023-02-02T15:54:32.665Z,8.90
2023-02-02T15:57:03.224Z,8.90
2023-02-02T15:59:38.845Z,8.90
2023-02-02T16:02:09.595Z,8.90
2023-02-02T16:04:39.603Z,8.90
2023-02-02T16:07:12.447Z,8.90
2023-02-02T16:09:41.555Z,8.90
2023-02-02T16:12:18.516Z,8.90
2023-02-02T16:14:52.076Z,8.90
2023-02-02T16:17:23.196Z,8.90
2023-02-02T16:19:56.463Z,8.90
2023-02-02T16:22:25.334Z,8.90
2023-02-02T16:24:54.447Z,8.90
2023-02-02T16:27:26.782Z,8.90
2023-02-02T16:29:55.988Z,8.90
2023-02-02T16:32:30.551Z,8.90
2023-02-02T16:34:58.202Z,8.90
2023-02-02T16:37:33.743Z,8.80
2023-02-02T16:40:30.809Z,8.90
2023-02-02T16:43:28.221Z,8.80
2023-02-02T16:46:03.845Z,8.80
2023-02-02T16:48:40.777Z,8.80
2023-02-02T16:51:16.694Z,8.90
2023-02-02T16:54:01.900Z,8.90
2023-02-02T16:56:28.632Z,8.90
2023-02-02T16:58:58.068Z,8.80
2023-02-02T17:01:49.660Z,8.90
2023-02-02T17:04:29.524Z,8.90
2023-02-02T17:07:05.335Z,8.90
2023-02-02T17:09:40.822Z,8.90
2023-02-02T17:12:32.840Z,8.80
2023-02-02T17:15:05.582Z,8.80
2023-02-02T17:17:32.256Z,8.80
2023-02-02T17:19:58.898Z,8.80
2023-02-02T17:22:27.619Z,8.80
2023-02-02T17:24:54.614Z,8.80
2023-02-02T17:27:27.931Z,8.80
2023-02-02T17:29:55.423Z,8.90
2023-02-02T17:32:23.672Z,8.90
2023-02-02T17:34:50.413Z,8.90
2023-02-02T17:37:17.038Z,8.90
2023-02-02T17:39:43.751Z,8.90
2023-02-02T17:42:24.234Z,8.90
2023-02-02T17:44:50.814Z,8.90
2023-02-02T17:47:17.505Z,8.90
2023-02-02T17:49:44.111Z,8.90
2023-02-02T17:52:12.465Z,8.90
2023-02-02T17:54:39.081Z,8.90
2023-02-02T17:57:05.677Z,8.90
2023-02-02T17:59:32.266Z,8.90
2023-02-02T18:01:59.140Z,8.90
2023-02-02T18:04:26.816Z,8.90
2023-02-02T18:06:53.404Z,8.90
2023-02-02T18:09:20.034Z,8.90
2023-02-02T18:11:49.285Z,8.90
2023-02-02T18:14:15.865Z,8.90
2023-02-02T18:16:42.436Z,8.90
2023-02-02T18:19:09.384Z,8.90
2023-02-02T18:21:36.046Z,8.90
2023-02-02T18:24:02.797Z,8.90
2023-02-02T18:26:31.193Z,8.90
2023-02-02T18:28:59.073Z,9.00
2023-02-02T18:31:26.957Z,9.00
2023-02-02T18:33:54.311Z,9.00
2023-02-02T18:36:23.465Z,8.90
2023-02-02T18:38:51.255Z,9.00
2023-02-02T18:41:19.053Z,9.00
2023-02-02T18:43:45.668Z,8.90
2023-02-02T18:46:13.787Z,9.00
2023-02-02T18:48:42.145Z,9.00
2023-02-02T18:51:15.469Z,9.00
2023-02-02T18:53:46.462Z,8.90
2023-02-02T18:56:14.902Z,8.90
2023-02-02T18:58:41.664Z,9.00
2023-02-02T19:01:15.182Z,9.00
2023-02-02T19:03:41.978Z,9.00
2023-02-02T19:06:28.199Z,8.90
2023-02-02T19:08:55.323Z,9.00
2023-02-02T19:11:24.147Z,9.00
2023-02-02T19:13:50.965Z,9.00
2023-02-02T19:16:27.654Z,8.90
2023-02-02T19:19:08.147Z,9.00
2023-02-02T19:21:34.755Z,8.90
2023-02-02T19:24:01.474Z,8.90
2023-02-02T19:26:29.348Z,8.90
2023-02-02T19:29:02.925Z,8.80
2023-02-02T19:31:29.701Z,8.90
2023-02-02T19:33:57.598Z,8.80
2023-02-02T19:36:27.671Z,8.80
2023-02-02T19:39:10.970Z,8.80
2023-02-02T19:41:40.517Z,8.80
2023-02-02T19:44:15.714Z,8.80
2023-02-02T19:46:45.582Z,8.70
2023-02-02T19:49:16.119Z,8.80
2023-02-02T19:51:50.643Z,8.70
2023-02-02T19:54:40.297Z,8.70
2023-02-02T19:57:32.159Z,8.70
2023-02-02T20:00:02.372Z,8.70
2023-02-02T20:02:42.112Z,8.70
2023-02-02T20:05:11.547Z,8.70
2023-02-02T20:07:39.044Z,8.70
2023-02-02T20:10:22.369Z,8.60
2023-02-02T20:12:50.452Z,8.60
2023-02-02T20:15:35.303Z,8.60
2023-02-02T20:18:05.477Z,8.60
2023-02-02T20:20:39.448Z,8.60
2023-02-02T20:23:26.712Z,8.60
2023-02-02T20:25:53.413Z,8.60
2023-02-02T20:28:43.177Z,8.60
2023-02-02T20:31:13.268Z,8.70
2023-02-02T20:33:44.320Z,8.70
2023-02-02T20:36:26.914Z,8.70
2023-02-02T20:38:53.685Z,8.80
2023-02-02T20:41:20.365Z,8.80
2023-02-02T20:43:47.001Z,8.80
2023-02-02T20:46:15.047Z,8.80
2023-02-02T20:48:42.101Z,8.80
2023-02-02T20:51:08.676Z,8.80
2023-02-02T20:53:35.616Z,8.90
2023-02-02T20:56:02.819Z,8.90
2023-02-02T20:58:29.461Z,8.90
2023-02-02T21:00:56.151Z,8.90
2023-02-02T21:03:22.751Z,8.90
2023-02-02T21:05:49.421Z,8.90
2023-02-02T21:08:15.997Z,8.90
2023-02-02T21:10:42.601Z,9.00
2023-02-02T21:13:09.193Z,9.00
2023-02-02T21:15:35.777Z,9.00
2023-02-02T21:18:02.377Z,9.00
2023-02-02T21:20:29.477Z,9.00
2023-02-02T21:22:56.696Z,9.00
2023-02-02T21:25:23.303Z,9.00
2023-02-02T21:27:49.870Z,9.10
2023-02-02T21:30:16.498Z,9.10
2023-02-02T21:32:44.056Z,9.10
2023-02-02T21:35:10.925Z,9.00
2023-02-02T21:37:38.083Z,9.10
2023-02-02T21:40:28.689Z,9.10
2023-02-02T21:42:58.546Z,9.10
2023-02-02T21:45:34.323Z,9.10
2023-02-02T21:48:06.108Z,9.10
2023-02-02T21:50:36.333Z,9.20
2023-02-02T21:53:20.078Z,9.20
2023-02-02T21:55:52.231Z,9.20
2023-02-02T21:58:38.246Z,9.20
2023-02-02T22:01:16.866Z,9.20
2023-02-02T22:03:46.530Z,9.20
2023-02-02T22:06:22.474Z,9.30
2023-02-02T22:08:49.903Z,9.30
2023-02-02T22:11:31.538Z,9.30
2023-02-02T22:14:15.151Z,9.30
2023-02-02T22:16:48.517Z,9.30
2023-02-02T22:19:35.058Z,9.30
2023-02-02T22:22:15.393Z,9.30
2023-02-02T22:24:44.287Z,9.40
2023-02-02T22:27:23.100Z,9.40
2023-02-02T22:29:56.273Z,9.40
2023-02-02T22:32:22.842Z,9.40
2023-02-02T22:34:49.419Z,9.40
2023-02-02T22:37:15.995Z,9.40
2023-02-02T22:39:42.763Z,9.40
2023-02-02T22:42:10.438Z,9.40
2023-02-02T22:44:37.253Z,9.40
2023-02-02T22:47:04.044Z,9.40
2023-02-02T22:49:30.661Z,9.40
2023-02-02T22:51:57.258Z,9.40
2023-02-02T22:54:23.821Z,9.40
2023-02-02T22:56:50.601Z,9.40
2023-02-02T22:59:17.227Z,9.40
2023-02-02T23:01:43.817Z,9.40
2023-02-02T23:04:10.457Z,9.40
2023-02-02T23:06:37.056Z,9.40
2023-02-02T23:09:03.711Z,9.40
2023-02-02T23:11:30.292Z,9.50
2023-02-02T23:13:56.865Z,9.50
2023-02-02T23:16:23.498Z,9.40
2023-02-02T23:18:50.173Z,9.40
2023-02-02T23:21:17.367Z,9.40
2023-02-02T23:23:43.991Z,9.40
2023-02-02T23:26:10.569Z,9.40
2023-02-02T23:28:37.124Z,9.40
2023-02-02T23:31:04.050Z,9.40
2023-02-02T23:33:31.104Z,9.40
2023-02-02T23:35:57.742Z,9.40
2023-02-02T23:38:24.341Z,9.50
2023-02-02T23:40:51.003Z,9.40
2023-02-02T23:43:17.662Z,9.40
2023-02-02T23:45:44.383Z,9.50
2023-02-02T23:48:12.327Z,9.50
2023-02-02T23:50:39.652Z,9.50
2023-02-02T23:53:08.837Z,9.50
2023-02-02T23:55:35.784Z,9.50
2023-02-02T23:58:02.894Z,9.50
